Time;durP1;ratioP1;P1;durP2;ratioP2;P2;SDS_P1;SDS_P2;PMS_P1;PMS_P2;Temp;Humidity;BMP_temperature;BMP_pressure;BME280_temperature;BME280_humidity;BME280_pressure;Samples;Min_cycle;Max_cycle;Signal;HPM_P1;HPM_P2
2023/03/31 00:00:56;;;;;;;;;;;;;;;;;;4999230;28;19974;-65
2023/03/31 00:03:22;;;;;;;;;;;;;;;;;;5002000;28;20018;-65
2023/03/31 00:05:48;;;;;;;;;;;;;;;;;;4998684;28;20024;-65
2023/03/31 00:08:13;;;;;;;;;;;;;;;;;;4963294;28;20431;-64
2023/03/31 00:10:41;;;;;;;;;;;;;;;;;;4999675;28;20019;-65
2023/03/31 00:13:09;;;;;;;;;;;;;;;;;;4965284;28;20450;-64
2023/03/31 00:15:35;;;;;;;;;;;;;;;;;;4979780;28;20257;-64
2023/03/31 00:18:01;;;;;;;;;;;;;;;;;;4998053;28;20090;-64
2023/03/31 00:20:26;;;;;;;;;;;;;;;;;;4981695;28;19921;-65
2023/03/31 00:22:53;;;;;;;;;;;;;;;;;;4997515;28;20435;-66
2023/03/31 00:25:19;;;;;;;;;;;;;;;;;;4979047;28;20335;-65
2023/03/31 00:27:44;;;;;;;;;;;;;;;;;;5001012;28;19978;-65
2023/03/31 00:30:09;;;;;;;;;;;;;;;;;;4977779;28;20343;-63
2023/03/31 00:32:35;;;;;;;;;;;;;;;;;;4979697;28;20094;-63
2023/03/31 00:35:03;;;;;;;;;;;;;;;;;;4983172;28;20047;-65
2023/03/31 00:37:28;;;;;;;;;;;;;;;;;;4998432;28;19921;-65
2023/03/31 00:39:59;;;;;;;;;;;;;;;;;;4984199;28;21465;-65
2023/03/31 00:42:27;;;;;;;;;;;;;;;;;;4977152;28;21190;-64
2023/03/31 00:44:53;;;;;;;;;;;;;;;;;;4983500;28;20244;-65
2023/03/31 00:47:21;;;;;;;;;;;;;;;;;;5003426;28;20315;-63
2023/03/31 00:49:49;;;;;;;;;;;;;;;;;;4981045;28;19921;-65
2023/03/31 00:52:14;;;;;;;;;;;;;;;;;;4996585;28;19920;-64
2023/03/31 00:54:43;;;;;;;;;;;;;;;;;;4984878;28;20076;-64
2023/03/31 00:57:08;;;;;;;;;;;;;;;;;;4982113;28;19996;-64
2023/03/31 00:59:33;;;;;;;;;;;;;;;;;;4978741;28;21713;-65
2023/03/31 01:02:01;;;;;;;;;;;;;;;;;;4981326;28;20546;-65
2023/03/31 01:04:27;;;;;;;;;;;;;;;;;;4987404;28;19932;-65
2023/03/31 01:06:56;;;;;;;;;;;;;;;;;;4982452;28;20124;-66
2023/03/31 01:09:21;;;;;;;;;;;;;;;;;;4985223;28;19996;-66
2023/03/31 01:11:46;;;;;;;;;;;;;;;;;;4981381;28;20925;-66
2023/03/31 01:14:12;;;;;;;;;;;;;;;;;;5017641;28;19975;-64
2023/03/31 01:16:39;;;;;;;;;;;;;;;;;;5001053;28;19923;-64
2023/03/31 01:19:04;;;;;;;;;;;;;;;;;;4985277;28;19921;-64
2023/03/31 01:21:30;;;;;;;;;;;;;;;;;;5016547;28;19917;-64
2023/03/31 01:23:57;;;;;;;;;;;;;;;;;;4999958;28;19921;-64
2023/03/31 01:26:23;;;;;;;;;;;;;;;;;;4988163;28;21521;-65
2023/03/31 01:28:48;;;;;;;;;;;;;;;;;;4985261;28;19960;-64
2023/03/31 01:31:16;;;;;;;;;;;;;;;;;;5018283;28;20047;-65
2023/03/31 01:36:33;;;;;;;;;;;;;;;;;;4984226;28;19928;-65
2023/03/31 01:39:00;;;;;;;;;;;;;;;;;;4985216;28;21274;-65
2023/03/31 01:41:25;;;;;;;;;;;;;;;;;;4982182;28;19921;-66
2023/03/31 01:43:51;;;;;;;;;;;;;;;;;;5000804;28;19921;-66
2023/03/31 01:46:16;;;;;;;;;;;;;;;;;;5000686;28;20660;-66
2023/03/31 01:48:44;;;;;;;;;;;;;;;;;;5000349;28;19977;-66
2023/03/31 01:51:09;;;;;;;;;;;;;;;;;;4986171;28;20668;-66
2023/03/31 01:53:37;;;;;;;;;;;;;;;;;;4982780;28;19928;-65
2023/03/31 01:56:02;;;;;;;;;;;;;;;;;;5003670;28;19921;-66
2023/03/31 01:58:28;;;;;;;;;;;;;;;;;;5000764;28;19928;-67
2023/03/31 02:00:55;;;;;;;;;;;;;;;;;;5000433;28;19917;-66
2023/03/31 02:03:20;;;;;;;;;;;;;;;;;;5001368;28;19924;-67
2023/03/31 02:05:46;;;;;;;;;;;;;;;;;;5034361;28;20292;-65
2023/03/31 02:08:14;;;;;;;;;;;;;;;;;;5021475;28;20379;-63
2023/03/31 02:10:39;;;;;;;;;;;;;;;;;;5019679;28;19924;-65
2023/03/31 02:13:05;;;;;;;;;;;;;;;;;;4997951;28;19956;-65
2023/03/31 02:15:31;;;;;;;;;;;;;;;;;;5021213;28;19917;-66
2023/03/31 02:17:57;;;;;;;;;;;;;;;;;;4986154;28;19951;-65
2023/03/31 02:20:23;;;;;;;;;;;;;;;;;;4996676;28;19932;-65
2023/03/31 02:22:48;;;;;;;;;;;;;;;;;;5021534;28;19970;-66
2023/03/31 02:25:13;;;;;;;;;;;;;;;;;;4996720;28;20487;-66
2023/03/31 02:27:39;;;;;;;;;;;;;;;;;;4987183;28;19978;-65
2023/03/31 02:30:05;;;;;;;;;;;;;;;;;;5001701;28;20467;-65
2023/03/31 02:32:31;;;;;;;;;;;;;;;;;;5000950;28;20638;-65
2023/03/31 02:34:56;;;;;;;;;;;;;;;;;;5001086;28;19921;-65
2023/03/31 02:37:21;;;;;;;;;;;;;;;;;;4996512;28;20720;-66
2023/03/31 02:39:46;;;;;;;;;;;;;;;;;;5015525;28;20090;-64
2023/03/31 02:42:12;;;;;;;;;;;;;;;;;;5016354;28;20074;-65
2023/03/31 02:44:37;;;;;;;;;;;;;;;;;;4996415;28;20096;-65
2023/03/31 02:47:02;;;;;;;;;;;;;;;;;;4996263;28;20036;-65
2023/03/31 02:49:28;;;;;;;;;;;;;;;;;;4997091;28;19928;-64
2023/03/31 02:51:53;;;;;;;;;;;;;;;;;;5001008;28;22021;-67
2023/03/31 02:54:20;;;;;;;;;;;;;;;;;;5004193;28;20100;-66
2023/03/31 02:56:46;;;;;;;;;;;;;;;;;;4985488;28;19924;-66
2023/03/31 02:59:11;;;;;;;;;;;;;;;;;;5020937;28;21534;-65
2023/03/31 03:01:36;;;;;;;;;;;;;;;;;;5033278;28;19917;-65
2023/03/31 03:04:05;;;;;;;;;;;;;;;;;;5015223;28;20477;-65
2023/03/31 03:06:30;;;;;;;;;;;;;;;;;;5020269;28;20925;-65
2023/03/31 03:08:55;;;;;;;;;;;;;;;;;;5020440;28;19929;-65
2023/03/31 03:11:20;;;;;;;;;;;;;;;;;;4987513;28;19931;-66
2023/03/31 03:13:46;;;;;;;;;;;;;;;;;;5017804;28;20300;-64
2023/03/31 03:16:17;;;;;;;;;;;;;;;;;;5000574;28;19928;-66
2023/03/31 03:18:43;;;;;;;;;;;;;;;;;;5020263;28;19928;-65
2023/03/31 03:21:08;;;;;;;;;;;;;;;;;;5003346;28;19917;-65
2023/03/31 03:23:34;;;;;;;;;;;;;;;;;;4986013;28;20645;-65
2023/03/31 03:25:59;;;;;;;;;;;;;;;;;;5001256;28;19921;-65
2023/03/31 03:28:24;;;;;;;;;;;;;;;;;;5018650;28;20694;-65
2023/03/31 03:30:50;;;;;;;;;;;;;;;;;;5002057;28;19921;-66
2023/03/31 03:33:15;;;;;;;;;;;;;;;;;;5001465;28;20295;-65
2023/03/31 03:35:41;;;;;;;;;;;;;;;;;;5014205;28;20034;-64
2023/03/31 03:38:06;;;;;;;;;;;;;;;;;;5015773;28;20262;-66
2023/03/31 03:40:31;;;;;;;;;;;;;;;;;;5019053;28;19920;-66
2023/03/31 03:42:57;;;;;;;;;;;;;;;;;;4984766;28;19921;-66
2023/03/31 03:45:24;;;;;;;;;;;;;;;;;;5019536;28;21513;-65
2023/03/31 03:47:49;;;;;;;;;;;;;;;;;;5020011;28;19936;-65
2023/03/31 03:50:15;;;;;;;;;;;;;;;;;;4979917;28;20444;-66
2023/03/31 03:52:43;;;;;;;;;;;;;;;;;;4992092;28;19926;-65
2023/03/31 03:55:08;;;;;;;;;;;;;;;;;;4998899;28;19921;-65
2023/03/31 03:57:34;;;;;;;;;;;;;;;;;;5016363;28;19916;-66
2023/03/31 03:59:59;;;;;;;;;;;;;;;;;;4994269;28;20006;-66
2023/03/31 04:02:27;;;;;;;;;;;;;;;;;;5018494;28;20034;-66
2023/03/31 04:04:52;;;;;;;;;;;;;;;;;;5015926;28;20292;-66
2023/03/31 04:07:18;;;;;;;;;;;;;;;;;;5000252;28;20139;-66
2023/03/31 04:09:43;;;;;;;;;;;;;;;;;;4997026;28;19921;-65
2023/03/31 04:12:08;;;;;;;;;;;;;;;;;;5017657;28;20018;-65
2023/03/31 04:14:34;;;;;;;;;;;;;;;;;;5003157;28;19921;-64
2023/03/31 04:16:59;;;;;;;;;;;;;;;;;;5002383;28;20047;-65
2023/03/31 04:19:24;;;;;;;;;;;;;;;;;;5022415;28;19948;-66
2023/03/31 04:21:57;;;;;;;;;;;;;;;;;;5003702;28;19967;-65
2023/03/31 04:24:29;;;;;;;;;;;;;;;;;;5012489;28;19924;-66
2023/03/31 04:26:55;;;;;;;;;;;;;;;;;;4999981;28;19925;-67
2023/03/31 04:29:22;;;;;;;;;;;;;;;;;;4998028;28;20299;-67
2023/03/31 04:31:49;;;;;;;;;;;;;;;;;;4983576;28;20126;-67
2023/03/31 04:34:14;;;;;;;;;;;;;;;;;;5014384;28;20291;-68
2023/03/31 04:36:41;;;;;;;;;;;;;;;;;;4984262;28;19927;-69
2023/03/31 04:39:09;;;;;;;;;;;;;;;;;;4988650;28;19925;-69
2023/03/31 04:41:47;;;;;;;;;;;;;;;;;;4983020;28;20352;-69
2023/03/31 04:44:12;;;;;;;;;;;;;;;;;;5018494;28;19978;-71
2023/03/31 04:46:38;;;;;;;;;;;;;;;;;;5035199;28;20041;-70
2023/03/31 04:49:22;;;;;;;;;;;;;;;;;;5000626;28;19924;-71
2023/03/31 04:51:47;;;;;;;;;;;;;;;;;;5000086;28;19921;-69
2023/03/31 04:54:12;;;;;;;;;;;;;;;;;;5020678;28;19917;-70
2023/03/31 04:59:54;;;;;;;;;;;;;;;;;;5019485;28;20288;-69
2023/03/31 05:02:22;;;;;;;;;;;;;;;;;;5000054;28;19921;-69
2023/03/31 05:04:50;;;;;;;;;;;;;;;;;;5019840;28;20280;-69
2023/03/31 05:07:16;;;;;;;;;;;;;;;;;;5002263;28;20036;-69
2023/03/31 05:09:41;;;;;;;;;;;;;;;;;;5000125;28;20809;-69
2023/03/31 05:12:06;;;;;;;;;;;;;;;;;;5021905;28;19921;-69
2023/03/31 05:14:31;;;;;;;;;;;;;;;;;;4997376;28;19956;-69
2023/03/31 05:16:58;;;;;;;;;;;;;;;;;;4995266;28;19921;-69
2023/03/31 05:19:23;;;;;;;;;;;;;;;;;;4997606;28;20390;-70
2023/03/31 05:21:48;;;;;;;;;;;;;;;;;;4985559;28;19927;-69
2023/03/31 05:24:14;;;;;;;;;;;;;;;;;;5017547;28;19916;-69
2023/03/31 05:26:40;;;;;;;;;;;;;;;;;;5013480;28;20380;-69
2023/03/31 05:29:05;;;;;;;;;;;;;;;;;;5017358;28;20119;-69
2023/03/31 05:31:30;;;;;;;;;;;;;;;;;;5005079;28;19960;-70
2023/03/31 05:33:56;;;;;;;;;;;;;;;;;;5018423;28;20520;-70
2023/03/31 05:36:22;;;;;;;;;;;;;;;;;;5017910;28;19921;-71
2023/03/31 05:38:47;;;;;;;;;;;;;;;;;;5004010;28;19926;-71
2023/03/31 05:41:12;;;;;;;;;;;;;;;;;;5021393;28;20287;-71
2023/03/31 05:43:38;;;;;;;;;;;;;;;;;;5023036;28;19920;-69
2023/03/31 05:46:03;;;;;;;;;;;;;;;;;;5023480;28;19921;-72
2023/03/31 05:48:29;;;;;;;;;;;;;;;;;;5001872;28;20364;-70
2023/03/31 05:50:54;;;;;;;;;;;;;;;;;;4988027;28;20383;-71
2023/03/31 05:53:19;;;;;;;;;;;;;;;;;;5023093;28;19995;-71
2023/03/31 05:55:45;;;;;;;;;;;;;;;;;;5004151;28;20135;-70
2023/03/31 05:58:10;;;;;;;;;;;;;;;;;;4989789;28;19920;-71
2023/03/31 06:00:36;;;;;;;;;;;;;;;;;;5021470;28;20892;-69
2023/03/31 06:03:02;;;;;;;;;;;;;;;;;;4989850;28;20475;-71
2023/03/31 06:05:29;;;;;;;;;;;;;;;;;;5006311;28;19963;-72
2023/03/31 06:07:57;;;;;;;;;;;;;;;;;;4999061;28;19929;-72
2023/03/31 06:10:23;;;;;;;;;;;;;;;;;;4982239;28;19956;-71
2023/03/31 06:12:48;;;;;;;;;;;;;;;;;;5003002;28;20036;-71
2023/03/31 06:15:14;;;;;;;;;;;;;;;;;;5003810;28;19921;-69
2023/03/31 06:17:40;;;;;;;;;;;;;;;;;;4982303;28;20218;-71
2023/03/31 06:20:05;;;;;;;;;;;;;;;;;;4982847;28;19944;-69
2023/03/31 06:22:31;;;;;;;;;;;;;;;;;;4969278;28;20027;-69
2023/03/31 06:24:56;;;;;;;;;;;;;;;;;;4983537;28;20490;-68
2023/03/31 06:27:22;;;;;;;;;;;;;;;;;;5002233;28;20176;-69
2023/03/31 06:29:49;;;;;;;;;;;;;;;;;;5002149;28;20459;-70
2023/03/31 06:32:14;;;;;;;;;;;;;;;;;;5002900;28;19925;-70
2023/03/31 06:34:40;;;;;;;;;;;;;;;;;;4967837;28;19940;-67
2023/03/31 06:37:05;;;;;;;;;;;;;;;;;;4980228;28;19978;-68
2023/03/31 06:39:31;;;;;;;;;;;;;;;;;;4984943;28;19987;-72
2023/03/31 06:41:56;;;;;;;;;;;;;;;;;;4986490;28;20134;-73
2023/03/31 06:44:23;;;;;;;;;;;;;;;;;;4997662;28;20051;-72
2023/03/31 06:46:48;;;;;;;;;;;;;;;;;;4985657;28;19922;-71
2023/03/31 06:49:14;;;;;;;;;;;;;;;;;;4968623;28;19921;-72
2023/03/31 06:51:39;;;;;;;;;;;;;;;;;;4982245;28;20678;-74
2023/03/31 06:54:05;;;;;;;;;;;;;;;;;;4997192;28;19920;-73
2023/03/31 06:56:30;;;;;;;;;;;;;;;;;;5000952;28;19925;-71
2023/03/31 06:58:56;;;;;;;;;;;;;;;;;;4985328;28;19957;-73
2023/03/31 07:01:21;;;;;;;;;;;;;;;;;;5002710;28;20101;-73
2023/03/31 07:03:46;;;;;;;;;;;;;;;;;;4982971;28;20044;-76
2023/03/31 07:06:11;;;;;;;;;;;;;;;;;;5033958;28;20324;-73
2023/03/31 07:08:37;;;;;;;;;;;;;;;;;;4985192;28;19937;-73
2023/03/31 07:11:05;;;;;;;;;;;;;;;;;;4985971;28;19921;-73
2023/03/31 07:13:31;;;;;;;;;;;;;;;;;;5001128;28;19921;-73
2023/03/31 07:15:56;;;;;;;;;;;;;;;;;;5002881;28;19925;-73
2023/03/31 07:18:24;;;;;;;;;;;;;;;;;;5002211;28;19918;-73
2023/03/31 07:20:52;;;;;;;;;;;;;;;;;;5002166;28;19972;-72
2023/03/31 07:23:18;;;;;;;;;;;;;;;;;;5002498;28;20007;-72
2023/03/31 07:25:44;;;;;;;;;;;;;;;;;;4995257;28;20459;-73
2023/03/31 07:28:09;;;;;;;;;;;;;;;;;;4994150;28;19947;-72
2023/03/31 07:30:35;;;;;;;;;;;;;;;;;;5000183;28;19921;-73
2023/03/31 07:33:00;;;;;;;;;;;;;;;;;;5003290;28;20011;-69
2023/03/31 07:35:25;;;;;;;;;;;;;;;;;;4997604;28;19928;-73
2023/03/31 07:37:51;;;;;;;;;;;;;;;;;;4998287;28;20349;-72
2023/03/31 07:40:16;;;;;;;;;;;;;;;;;;5000465;28;21476;-75
2023/03/31 07:42:42;;;;;;;;;;;;;;;;;;4998863;28;20204;-73
2023/03/31 07:45:07;;;;;;;;;;;;;;;;;;5004027;28;20157;-73
2023/03/31 07:47:32;;;;;;;;;;;;;;;;;;4998646;28;19921;-70
2023/03/31 07:49:58;;;;;;;;;;;;;;;;;;4998567;28;19924;-71
2023/03/31 07:52:24;;;;;;;;;;;;;;;;;;5000964;28;19925;-69
2023/03/31 07:54:49;;;;;;;;;;;;;;;;;;4977375;28;19998;-72
2023/03/31 07:57:18;;;;;;;;;;;;;;;;;;5001722;28;19920;-72
2023/03/31 07:59:44;;;;;;;;;;;;;;;;;;4996734;28;19917;-71
2023/03/31 08:02:10;;;;;;;;;;;;;;;;;;4999369;28;19928;-74
2023/03/31 08:04:35;;;;;;;;;;;;;;;;;;5007936;28;20348;-75
2023/03/31 08:07:00;;;;;;;;;;;;;;;;;;5005545;28;20018;-73
2023/03/31 08:09:26;;;;;;;;;;;;;;;;;;5023450;28;20019;-73
2023/03/31 08:11:52;;;;;;;;;;;;;;;;;;5004447;28;19920;-73
2023/03/31 08:14:17;;;;;;;;;;;;;;;;;;4983848;28;20457;-71
2023/03/31 08:16:42;;;;;;;;;;;;;;;;;;5002322;28;19943;-73
2023/03/31 08:19:08;;;;;;;;;;;;;;;;;;5000261;28;19917;-73
2023/03/31 08:21:33;;;;;;;;;;;;;;;;;;5001527;28;20907;-73
2023/03/31 08:23:59;;;;;;;;;;;;;;;;;;4982704;28;19920;-71
2023/03/31 08:26:27;;;;;;;;;;;;;;;;;;5018809;28;19920;-72
2023/03/31 08:28:55;;;;;;;;;;;;;;;;;;5000825;28;19928;-71
2023/03/31 08:31:22;;;;;;;;;;;;;;;;;;4996518;28;19963;-72
2023/03/31 08:33:48;;;;;;;;;;;;;;;;;;5019948;28;19943;-72
2023/03/31 08:36:13;;;;;;;;;;;;;;;;;;5019546;28;19920;-72
2023/03/31 08:38:40;;;;;;;;;;;;;;;;;;4983901;28;19960;-72
2023/03/31 08:41:05;;;;;;;;;;;;;;;;;;5022425;28;19921;-71
2023/03/31 08:43:31;;;;;;;;;;;;;;;;;;4984346;28;20134;-71
2023/03/31 08:45:57;;;;;;;;;;;;;;;;;;4986589;28;19956;-71
2023/03/31 08:48:24;;;;;;;;;;;;;;;;;;4999856;28;20556;-71
2023/03/31 08:50:49;;;;;;;;;;;;;;;;;;5030179;28;20038;-72
2023/03/31 08:53:15;;;;;;;;;;;;;;;;;;4997813;28;19917;-72
2023/03/31 08:55:40;;;;;;;;;;;;;;;;;;5016781;28;20376;-72
2023/03/31 08:58:06;;;;;;;;;;;;;;;;;;5018405;28;19956;-72
2023/03/31 09:00:31;;;;;;;;;;;;;;;;;;4999973;28;20316;-73
2023/03/31 09:02:57;;;;;;;;;;;;;;;;;;5018608;28;19932;-70
2023/03/31 09:05:22;;;;;;;;;;;;;;;;;;5003766;28;19928;-69
2023/03/31 09:07:50;;;;;;;;;;;;;;;;;;5022072;28;19932;-72
2023/03/31 09:10:16;;;;;;;;;;;;;;;;;;5003300;28;20273;-71
2023/03/31 09:12:41;;;;;;;;;;;;;;;;;;5025918;28;20245;-70
2023/03/31 09:15:07;;;;;;;;;;;;;;;;;;5003176;28;20300;-70
2023/03/31 09:17:33;;;;;;;;;;;;;;;;;;5040081;28;19921;-70
2023/03/31 09:20:02;;;;;;;;;;;;;;;;;;4989052;28;20555;-70
2023/03/31 09:22:30;;;;;;;;;;;;;;;;;;5005228;28;21512;-70
2023/03/31 09:24:56;;;;;;;;;;;;;;;;;;5006614;28;19928;-71
2023/03/31 09:27:21;;;;;;;;;;;;;;;;;;5001636;28;19979;-70
2023/03/31 09:29:46;;;;;;;;;;;;;;;;;;4985406;28;19970;-71
2023/03/31 09:32:12;;;;;;;;;;;;;;;;;;5001091;28;19971;-71
2023/03/31 09:34:37;;;;;;;;;;;;;;;;;;5024637;28;19917;-71
2023/03/31 09:37:04;;;;;;;;;;;;;;;;;;5006046;28;19921;-71
2023/03/31 09:39:29;;;;;;;;;;;;;;;;;;5006732;28;20059;-71
2023/03/31 09:41:55;;;;;;;;;;;;;;;;;;5002428;28;19938;-72
2023/03/31 09:44:20;;;;;;;;;;;;;;;;;;5005224;28;19916;-72
2023/03/31 09:46:48;;;;;;;;;;;;;;;;;;5023948;28;19928;-71
2023/03/31 09:49:14;;;;;;;;;;;;;;;;;;5021682;28;19928;-72
2023/03/31 09:51:40;;;;;;;;;;;;;;;;;;5036791;28;19947;-72
2023/03/31 09:54:05;;;;;;;;;;;;;;;;;;5004792;28;19913;-71
2023/03/31 09:56:30;;;;;;;;;;;;;;;;;;5022496;28;19926;-72
2023/03/31 09:58:56;;;;;;;;;;;;;;;;;;5023764;28;20438;-71
2023/03/31 10:01:21;;;;;;;;;;;;;;;;;;5020451;28;20295;-71
2023/03/31 10:03:47;;;;;;;;;;;;;;;;;;5032494;28;19943;-72
2023/03/31 10:06:12;;;;;;;;;;;;;;;;;;4986386;28;19956;-71
2023/03/31 10:08:38;;;;;;;;;;;;;;;;;;5021646;28;19939;-70
2023/03/31 10:11:03;;;;;;;;;;;;;;;;;;5005211;28;19948;-70
2023/03/31 10:13:28;;;;;;;;;;;;;;;;;;4985364;28;21018;-72
2023/03/31 10:15:56;;;;;;;;;;;;;;;;;;5039313;28;22077;-71
2023/03/31 10:18:22;;;;;;;;;;;;;;;;;;5001449;28;19921;-70
2023/03/31 10:20:47;;;;;;;;;;;;;;;;;;5019477;28;19921;-71
2023/03/31 10:23:16;;;;;;;;;;;;;;;;;;5024396;28;19920;-73
2023/03/31 10:25:41;;;;;;;;;;;;;;;;;;5018175;28;19932;-70
2023/03/31 10:28:07;;;;;;;;;;;;;;;;;;4989047;28;19959;-70
2023/03/31 10:30:34;;;;;;;;;;;;;;;;;;5001154;28;21995;-69
2023/03/31 10:32:59;;;;;;;;;;;;;;;;;;5001246;28;19956;-69
2023/03/31 10:35:25;;;;;;;;;;;;;;;;;;5020369;28;20031;-70
2023/03/31 10:37:50;;;;;;;;;;;;;;;;;;5020041;28;19917;-69
2023/03/31 10:40:16;;;;;;;;;;;;;;;;;;5033622;28;19931;-70
2023/03/31 10:42:41;;;;;;;;;;;;;;;;;;5001229;28;21675;-70
2023/03/31 10:45:07;;;;;;;;;;;;;;;;;;5009428;28;19965;-69
2023/03/31 10:47:32;;;;;;;;;;;;;;;;;;5022425;28;20486;-70
2023/03/31 10:50:00;;;;;;;;;;;;;;;;;;5020719;28;19979;-67
2023/03/31 10:52:26;;;;;;;;;;;;;;;;;;4986390;28;19921;-69
2023/03/31 10:54:51;;;;;;;;;;;;;;;;;;5016996;28;19983;-69
2023/03/31 10:57:17;;;;;;;;;;;;;;;;;;5009116;28;19967;-69
2023/03/31 10:59:42;;;;;;;;;;;;;;;;;;5001875;28;21654;-70
2023/03/31 11:02:08;;;;;;;;;;;;;;;;;;4999752;28;19928;-68
2023/03/31 11:04:36;;;;;;;;;;;;;;;;;;4983287;28;20391;-69
2023/03/31 11:07:01;;;;;;;;;;;;;;;;;;5018451;28;19955;-70
2023/03/31 11:09:27;;;;;;;;;;;;;;;;;;4996337;28;20377;-70
2023/03/31 11:11:53;;;;;;;;;;;;;;;;;;5000499;28;19927;-70
2023/03/31 11:14:19;;;;;;;;;;;;;;;;;;4999123;28;19917;-69
2023/03/31 11:16:44;;;;;;;;;;;;;;;;;;4983758;28;20009;-69
2023/03/31 11:19:10;;;;;;;;;;;;;;;;;;5014292;28;19921;-70
2023/03/31 11:21:35;;;;;;;;;;;;;;;;;;5016549;28;20103;-69
2023/03/31 11:24:01;;;;;;;;;;;;;;;;;;4995414;28;19917;-69
2023/03/31 11:26:26;;;;;;;;;;;;;;;;;;5022262;28;19974;-70
2023/03/31 11:28:55;;;;;;;;;;;;;;;;;;4999953;28;19924;-70
2023/03/31 11:31:20;;;;;;;;;;;;;;;;;;4998935;28;20681;-70
2023/03/31 11:33:46;;;;;;;;;;;;;;;;;;5002671;28;20271;-68
2023/03/31 11:36:12;;;;;;;;;;;;;;;;;;5000867;28;19929;-70
2023/03/31 11:38:38;;;;;;;;;;;;;;;;;;5018874;28;19928;-70
2023/03/31 11:41:06;;;;;;;;;;;;;;;;;;5016400;28;20003;-69
2023/03/31 11:43:31;;;;;;;;;;;;;;;;;;4983517;28;21489;-68
2023/03/31 11:45:57;;;;;;;;;;;;;;;;;;5021230;28;20355;-68
2023/03/31 11:48:22;;;;;;;;;;;;;;;;;;4984436;28;20134;-68
2023/03/31 11:50:48;;;;;;;;;;;;;;;;;;5020206;28;19968;-68
2023/03/31 11:53:13;;;;;;;;;;;;;;;;;;5020994;28;19916;-68
2023/03/31 11:55:39;;;;;;;;;;;;;;;;;;5017982;28;19921;-68
2023/03/31 11:58:04;;;;;;;;;;;;;;;;;;4998400;28;19986;-70
2023/03/31 12:00:31;;;;;;;;;;;;;;;;;;4999053;28;19921;-69
2023/03/31 12:02:57;;;;;;;;;;;;;;;;;;5016711;28;20433;-68
2023/03/31 12:05:22;;;;;;;;;;;;;;;;;;5024635;28;19932;-68
2023/03/31 12:07:48;;;;;;;;;;;;;;;;;;4999173;28;19917;-67
2023/03/31 12:10:16;;;;;;;;;;;;;;;;;;4995466;28;20044;-68
2023/03/31 12:12:41;;;;;;;;;;;;;;;;;;4979138;28;20074;-70
2023/03/31 12:15:07;;;;;;;;;;;;;;;;;;5001540;28;20430;-67
2023/03/31 12:17:34;;;;;;;;;;;;;;;;;;4997406;28;19928;-67
2023/03/31 12:20:01;;;;;;;;;;;;;;;;;;4997563;28;21353;-69
2023/03/31 12:22:26;;;;;;;;;;;;;;;;;;4985887;28;20059;-69
2023/03/31 12:24:53;;;;;;;;;;;;;;;;;;4997510;28;19921;-71
2023/03/31 12:27:18;;;;;;;;;;;;;;;;;;4980941;28;19917;-67
2023/03/31 12:29:43;;;;;;;;;;;;;;;;;;4990841;28;20012;-68
2023/03/31 12:32:08;;;;;;;;;;;;;;;;;;4997071;28;19929;-69
2023/03/31 12:34:34;;;;;;;;;;;;;;;;;;4992856;28;19921;-68
2023/03/31 12:37:00;;;;;;;;;;;;;;;;;;4991700;28;20486;-68
2023/03/31 12:39:26;;;;;;;;;;;;;;;;;;5024816;28;20295;-69
2023/03/31 12:41:51;;;;;;;;;;;;;;;;;;5028983;28;20339;-69
2023/03/31 12:44:17;;;;;;;;;;;;;;;;;;4996576;28;19929;-70
2023/03/31 12:46:44;;;;;;;;;;;;;;;;;;5001082;28;19956;-70
2023/03/31 12:49:10;;;;;;;;;;;;;;;;;;5003742;28;20007;-70
2023/03/31 12:51:39;;;;;;;;;;;;;;;;;;5005133;28;20939;-68
2023/03/31 12:54:05;;;;;;;;;;;;;;;;;;5001253;28;19969;-71
2023/03/31 12:56:30;;;;;;;;;;;;;;;;;;4988303;28;20188;-71
2023/03/31 12:58:55;;;;;;;;;;;;;;;;;;4998766;28;19917;-71
2023/03/31 13:01:21;;;;;;;;;;;;;;;;;;5000420;28;20648;-71
2023/03/31 13:03:46;;;;;;;;;;;;;;;;;;4986673;28;20006;-70
2023/03/31 13:06:12;;;;;;;;;;;;;;;;;;5007886;28;19925;-69
2023/03/31 13:08:37;;;;;;;;;;;;;;;;;;5001110;28;20327;-70
2023/03/31 13:11:02;;;;;;;;;;;;;;;;;;4988107;28;19967;-70
2023/03/31 13:13:28;;;;;;;;;;;;;;;;;;5016474;28;19956;-70
2023/03/31 13:15:53;;;;;;;;;;;;;;;;;;4994779;28;19920;-70
2023/03/31 13:18:18;;;;;;;;;;;;;;;;;;4986694;28;19920;-70
2023/03/31 13:20:45;;;;;;;;;;;;;;;;;;5003263;28;19928;-71
2023/03/31 13:23:10;;;;;;;;;;;;;;;;;;5036237;28;19924;-70
2023/03/31 13:25:35;;;;;;;;;;;;;;;;;;5019633;28;19921;-69
2023/03/31 13:28:04;;;;;;;;;;;;;;;;;;5003297;28;20289;-69
2023/03/31 13:30:32;;;;;;;;;;;;;;;;;;4984389;28;19924;-68
2023/03/31 13:32:58;;;;;;;;;;;;;;;;;;5016298;28;19921;-67
2023/03/31 13:35:29;;;;;;;;;;;;;;;;;;5017153;28;19917;-67
2023/03/31 13:37:56;;;;;;;;;;;;;;;;;;5018113;28;20463;-67
2023/03/31 13:40:21;;;;;;;;;;;;;;;;;;4985307;28;20365;-67
2023/03/31 13:42:47;;;;;;;;;;;;;;;;;;5021011;28;20043;-67
2023/03/31 13:45:12;;;;;;;;;;;;;;;;;;5019001;28;20627;-67
2023/03/31 13:47:38;;;;;;;;;;;;;;;;;;5003805;28;19927;-68
2023/03/31 13:50:03;;;;;;;;;;;;;;;;;;5000623;28;20014;-67
2023/03/31 13:52:28;;;;;;;;;;;;;;;;;;5019150;28;19932;-70
2023/03/31 13:54:54;;;;;;;;;;;;;;;;;;5017144;28;19916;-67
2023/03/31 13:57:19;;;;;;;;;;;;;;;;;;4999813;28;20370;-72
2023/03/31 13:59:45;;;;;;;;;;;;;;;;;;5001015;28;19920;-70
2023/03/31 14:02:11;;;;;;;;;;;;;;;;;;4998509;28;19979;-70
2023/03/31 14:04:36;;;;;;;;;;;;;;;;;;5005499;28;20160;-70
2023/03/31 14:07:01;;;;;;;;;;;;;;;;;;4986253;28;19949;-71
2023/03/31 14:09:26;;;;;;;;;;;;;;;;;;4999314;28;20433;-70
2023/03/31 14:11:55;;;;;;;;;;;;;;;;;;5021946;28;19943;-70
2023/03/31 14:14:22;;;;;;;;;;;;;;;;;;4999942;28;19948;-72
2023/03/31 14:16:47;;;;;;;;;;;;;;;;;;5002132;28;20006;-71
2023/03/31 14:19:13;;;;;;;;;;;;;;;;;;5020803;28;20327;-72
2023/03/31 14:21:38;;;;;;;;;;;;;;;;;;5005282;28;19956;-71
2023/03/31 14:24:04;;;;;;;;;;;;;;;;;;5001280;28;20035;-71
2023/03/31 14:26:29;;;;;;;;;;;;;;;;;;5019726;28;20302;-71
2023/03/31 14:28:56;;;;;;;;;;;;;;;;;;4985365;28;19928;-72
2023/03/31 14:31:22;;;;;;;;;;;;;;;;;;5002832;28;20015;-72
2023/03/31 14:33:48;;;;;;;;;;;;;;;;;;4981806;28;19921;-72
2023/03/31 14:36:14;;;;;;;;;;;;;;;;;;5020986;28;19928;-72
2023/03/31 14:38:40;;;;;;;;;;;;;;;;;;5015648;28;20365;-72
2023/03/31 14:41:06;;;;;;;;;;;;;;;;;;5001368;28;19917;-73
2023/03/31 14:43:34;;;;;;;;;;;;;;;;;;5033944;28;19928;-73
2023/03/31 14:46:00;;;;;;;;;;;;;;;;;;5017493;28;19970;-73
2023/03/31 14:48:26;;;;;;;;;;;;;;;;;;5020976;28;20504;-72
2023/03/31 14:50:51;;;;;;;;;;;;;;;;;;5000326;28;20026;-70
2023/03/31 14:53:17;;;;;;;;;;;;;;;;;;5000780;28;20331;-71
2023/03/31 14:55:42;;;;;;;;;;;;;;;;;;4987737;28;19925;-70
2023/03/31 14:58:07;;;;;;;;;;;;;;;;;;5021286;28;19916;-68
2023/03/31 15:00:33;;;;;;;;;;;;;;;;;;5034605;28;19963;-67
2023/03/31 15:02:58;;;;;;;;;;;;;;;;;;4980833;28;19921;-69
2023/03/31 15:05:23;;;;;;;;;;;;;;;;;;5018329;28;19948;-69
2023/03/31 15:07:52;;;;;;;;;;;;;;;;;;5021563;28;20106;-72
2023/03/31 15:10:17;;;;;;;;;;;;;;;;;;5012747;28;19952;-70
2023/03/31 15:12:42;;;;;;;;;;;;;;;;;;5016380;28;19921;-69
2023/03/31 15:15:08;;;;;;;;;;;;;;;;;;4984407;28;20039;-70
2023/03/31 15:17:33;;;;;;;;;;;;;;;;;;4995411;28;19917;-71
2023/03/31 15:19:59;;;;;;;;;;;;;;;;;;4996946;28;19928;-68
2023/03/31 15:22:24;;;;;;;;;;;;;;;;;;4996694;28;21593;-70
2023/03/31 15:24:50;;;;;;;;;;;;;;;;;;5014164;28;20051;-70
2023/03/31 15:27:15;;;;;;;;;;;;;;;;;;5020515;28;19917;-70
2023/03/31 15:29:40;;;;;;;;;;;;;;;;;;5018160;28;19972;-70
2023/03/31 15:32:06;;;;;;;;;;;;;;;;;;4998375;28;20009;-69
2023/03/31 15:34:35;;;;;;;;;;;;;;;;;;5013937;28;20915;-70
2023/03/31 15:37:01;;;;;;;;;;;;;;;;;;5031952;28;20009;-69
2023/03/31 15:39:26;;;;;;;;;;;;;;;;;;5017012;28;19924;-71
2023/03/31 15:41:52;;;;;;;;;;;;;;;;;;5000595;28;20334;-69
2023/03/31 15:44:17;;;;;;;;;;;;;;;;;;5000333;28;19928;-69
2023/03/31 15:46:43;;;;;;;;;;;;;;;;;;4984022;28;19917;-70
2023/03/31 15:49:08;;;;;;;;;;;;;;;;;;5018112;28;20754;-71
2023/03/31 15:51:33;;;;;;;;;;;;;;;;;;5020155;28;19917;-72
2023/03/31 15:53:59;;;;;;;;;;;;;;;;;;5014571;28;21341;-74
2023/03/31 15:56:26;;;;;;;;;;;;;;;;;;5000771;28;19979;-70
2023/03/31 15:58:51;;;;;;;;;;;;;;;;;;4981479;28;20411;-70
2023/03/31 16:01:19;;;;;;;;;;;;;;;;;;5014288;28;19924;-69
2023/03/31 16:03:45;;;;;;;;;;;;;;;;;;5014581;28;20450;-69
2023/03/31 16:06:10;;;;;;;;;;;;;;;;;;4995137;28;20065;-71
2023/03/31 16:08:36;;;;;;;;;;;;;;;;;;5014016;28;19925;-71
2023/03/31 16:11:02;;;;;;;;;;;;;;;;;;4997937;28;19917;-71
2023/03/31 16:13:27;;;;;;;;;;;;;;;;;;5016773;28;19991;-69
2023/03/31 16:15:52;;;;;;;;;;;;;;;;;;4997818;28;20326;-71
2023/03/31 16:18:18;;;;;;;;;;;;;;;;;;5000093;28;21985;-70
2023/03/31 16:20:44;;;;;;;;;;;;;;;;;;4999891;28;20394;-70
2023/03/31 16:23:10;;;;;;;;;;;;;;;;;;5033442;28;20431;-71
2023/03/31 16:25:37;;;;;;;;;;;;;;;;;;5020439;28;19917;-70
2023/03/31 16:28:06;;;;;;;;;;;;;;;;;;4982756;28;20018;-70
2023/03/31 16:30:31;;;;;;;;;;;;;;;;;;4983013;28;20415;-69
2023/03/31 16:32:59;;;;;;;;;;;;;;;;;;5000691;28;19921;-70
2023/03/31 16:35:24;;;;;;;;;;;;;;;;;;4997763;28;20169;-69
2023/03/31 16:37:49;;;;;;;;;;;;;;;;;;4995848;28;19944;-69
2023/03/31 16:40:17;;;;;;;;;;;;;;;;;;4981251;28;20304;-70
2023/03/31 16:42:45;;;;;;;;;;;;;;;;;;4996725;28;19920;-69